createdAt,value
2022-08-14T00:00:13.465Z,85.30
2022-08-14T00:01:13.221Z,85.50
2022-08-14T00:02:12.462Z,85.70
2022-08-14T00:03:12.965Z,86.51
2022-08-14T00:04:34.205Z,86.44
2022-08-14T00:05:13.428Z,86.41
2022-08-14T00:06:25.313Z,86.15
2022-08-14T00:07:14.260Z,86.15
2022-08-14T00:08:14.090Z,86.15
2022-08-14T00:09:12.381Z,86.24
2022-08-14T00:10:51.960Z,86.24
2022-08-14T00:11:13.366Z,86.69
2022-08-14T00:12:23.757Z,86.75
2022-08-14T00:13:13.560Z,86.79
2022-08-14T00:14:12.354Z,86.89
2022-08-14T00:15:15.054Z,86.58
2022-08-14T00:16:12.369Z,86.85
2022-08-14T00:17:13.386Z,87.49
2022-08-14T00:18:14.501Z,86.99
2022-08-14T00:19:19.355Z,87.19
2022-08-14T00:20:13.326Z,87.19
2022-08-14T00:21:12.964Z,87.70
2022-08-14T00:22:12.330Z,87.40
2022-08-14T00:23:16.518Z,87.49
2022-08-14T00:24:12.296Z,87.40
2022-08-14T00:25:12.322Z,87.60
2022-08-14T00:26:21.471Z,87.76
2022-08-14T00:27:13.298Z,87.70
2022-08-14T00:28:15.398Z,87.65
2022-08-14T00:29:13.269Z,87.09
2022-08-14T00:30:14.306Z,87.60
2022-08-14T00:31:13.743Z,88.10
2022-08-14T00:32:53.008Z,87.29
2022-08-14T00:33:15.186Z,87.19
2022-08-14T00:34:37.243Z,86.99
2022-08-14T00:35:14.186Z,87.09
2022-08-14T00:36:37.635Z,86.89
2022-08-14T00:37:13.276Z,86.83
2022-08-14T00:38:12.220Z,86.63
2022-08-14T00:39:12.271Z,87.03
2022-08-14T00:40:27.299Z,87.43
2022-08-14T00:41:13.161Z,87.23
2022-08-14T00:42:52.858Z,87.13
2022-08-14T00:43:13.267Z,87.43
2022-08-14T00:44:12.109Z,87.68
2022-08-14T00:45:12.204Z,89.09
2022-08-14T00:46:32.774Z,88.34
2022-08-14T00:47:13.157Z,88.68
2022-08-14T00:48:12.057Z,88.75
2022-08-14T00:49:14.619Z,88.54
2022-08-14T00:50:17.664Z,89.05
2022-08-14T00:51:13.146Z,89.05
2022-08-14T00:52:14.078Z,88.99
2022-08-14T00:53:13.111Z,88.24
2022-08-14T00:54:21.176Z,88.14
2022-08-14T00:55:13.909Z,87.43
2022-08-14T00:56:15.428Z,87.38
2022-08-14T00:57:11.999Z,87.63
2022-08-14T00:58:12.747Z,87.98
2022-08-14T00:59:12.060Z,87.58
2022-08-14T01:00:34.128Z,88.14
2022-08-14T01:01:13.250Z,88.28
2022-08-14T01:02:12.055Z,88.39
2022-08-14T01:03:11.957Z,89.19
2022-08-14T01:04:51.792Z,89.09
2022-08-14T01:05:13.002Z,89.70
2022-08-14T01:06:12.008Z,89.25
2022-08-14T01:07:11.989Z,88.95
2022-08-14T01:08:20.657Z,89.05
2022-08-14T01:09:12.940Z,88.50
2022-08-14T01:10:11.904Z,88.54
2022-08-14T01:11:11.940Z,89.15
2022-08-14T01:12:12.955Z,88.95
2022-08-14T01:13:12.894Z,88.65
2022-08-14T01:14:25.525Z,89.01
2022-08-14T01:15:14.702Z,89.01
2022-08-14T01:16:14.761Z,89.11
2022-08-14T01:17:11.873Z,88.20
2022-08-14T01:18:11.818Z,88.90
2022-08-14T01:19:11.947Z,88.70
2022-08-14T01:20:27.579Z,88.90
2022-08-14T01:21:13.300Z,88.81
2022-08-14T01:22:12.978Z,88.70
2022-08-14T01:23:16.730Z,88.20
2022-08-14T01:24:12.821Z,88.70
2022-08-14T01:25:11.821Z,88.20
2022-08-14T01:26:11.855Z,88.50
2022-08-14T01:27:12.763Z,88.50
2022-08-14T01:28:11.799Z,88.50
2022-08-14T01:29:22.148Z,88.20
2022-08-14T01:30:12.804Z,88.10
2022-08-14T01:31:11.758Z,88.20
2022-08-14T01:32:11.780Z,88.30
2022-08-14T01:33:11.772Z,88.50
2022-08-14T01:35:19.430Z,88.40
2022-08-14T01:35:20.997Z,88.60
2022-08-14T01:36:22.780Z,88.56
2022-08-14T01:37:12.727Z,88.40
2022-08-14T01:38:11.701Z,88.20
2022-08-14T01:39:12.694Z,89.01
2022-08-14T01:40:11.681Z,88.90
2022-08-14T01:41:14.841Z,88.06
2022-08-14T01:42:11.732Z,88.90
2022-08-14T01:43:12.660Z,88.40
2022-08-14T01:44:33.135Z,89.11
2022-08-14T02:02:19.102Z,88.48
2022-08-14T02:03:15.843Z,88.99
2022-08-14T02:04:40.867Z,89.29
2022-08-14T02:05:16.804Z,89.34
2022-08-14T02:06:32.696Z,89.34
2022-08-14T02:07:17.914Z,89.54
2022-08-14T02:08:22.439Z,90.04
2022-08-14T02:09:22.247Z,90.14
2022-08-14T02:10:16.989Z,90.14
2022-08-14T02:11:16.895Z,91.05
2022-08-14T02:12:19.395Z,91.05
2022-08-14T02:14:35.450Z,91.05
2022-08-14T02:15:35.456Z,90.95
2022-08-14T02:16:35.501Z,90.85
2022-08-14T02:17:36.552Z,91.05
2022-08-14T02:18:36.554Z,91.15
2022-08-14T02:19:36.544Z,91.76
2022-08-14T02:20:36.557Z,91.60
2022-08-14T02:21:43.319Z,91.60
2022-08-14T02:22:47.452Z,90.79
2022-08-14T02:23:37.514Z,91.39
2022-08-14T02:24:39.859Z,91.09
2022-08-14T02:25:36.527Z,90.99
2022-08-14T02:28:18.652Z,90.79
2022-08-14T02:28:24.026Z,90.69
2022-08-14T02:28:57.189Z,90.94
2022-08-14T02:29:56.441Z,91.03
2022-08-14T02:30:38.601Z,91.80
2022-08-14T02:31:43.442Z,91.44
2022-08-14T02:32:37.586Z,91.44
2022-08-14T02:33:38.990Z,91.74
2022-08-14T02:34:36.464Z,91.64
2022-08-14T02:35:40.926Z,91.34
2022-08-14T02:37:05.430Z,91.94
2022-08-14T02:37:47.365Z,90.83
2022-08-14T02:38:37.396Z,91.78
2022-08-14T02:39:37.216Z,91.58
2022-08-14T02:41:09.065Z,92.09
2022-08-14T02:41:39.971Z,91.69
2022-08-14T02:42:38.419Z,92.80
2022-08-14T02:43:46.423Z,92.90
2022-08-14T02:44:39.642Z,92.65
2022-08-14T02:45:38.499Z,92.90
2022-08-14T02:46:37.365Z,92.69
2022-08-14T02:47:38.870Z,93.16
2022-08-14T02:49:01.615Z,92.76
2022-08-14T02:49:37.317Z,92.76
2022-08-14T02:50:36.310Z,93.05
2022-08-14T02:51:36.977Z,92.45
2022-08-14T02:52:57.880Z,92.71
2022-08-14T02:53:37.357Z,92.50
2022-08-14T02:54:36.294Z,92.76
2022-08-14T02:55:36.276Z,92.41
2022-08-14T02:57:16.229Z,92.21
2022-08-14T02:57:39.711Z,92.41
2022-08-14T02:58:37.107Z,92.35
2022-08-14T02:59:36.338Z,92.21
2022-08-14T03:00:40.144Z,91.90
2022-08-14T03:01:50.362Z,91.60
2022-08-14T03:02:56.257Z,92.00
2022-08-14T03:03:38.985Z,92.00
2022-08-14T03:04:36.206Z,92.30
2022-08-14T03:05:37.206Z,92.21
2022-08-14T03:06:58.107Z,91.80
2022-08-14T03:07:37.160Z,92.00
2022-08-14T03:08:36.167Z,92.10
2022-08-14T03:10:25.253Z,92.55
2022-08-14T03:10:37.147Z,92.91
2022-08-14T03:11:36.168Z,92.85
2022-08-14T03:12:36.181Z,92.71
2022-08-14T03:13:36.168Z,92.81
2022-08-14T03:14:36.161Z,92.41
2022-08-14T03:15:36.150Z,92.41
2022-08-14T03:16:36.178Z,92.35
2022-08-14T03:17:41.180Z,92.71
2022-08-14T03:18:38.043Z,92.55
2022-08-14T03:19:36.083Z,92.55
2022-08-14T03:20:36.092Z,92.45
2022-08-14T03:21:36.129Z,92.45
2022-08-14T03:22:36.080Z,92.50
2022-08-14T03:23:36.462Z,92.50
2022-08-14T03:24:36.047Z,92.85
2022-08-14T03:25:37.719Z,92.35
2022-08-14T03:26:36.080Z,93.05
2022-08-14T03:27:47.733Z,92.85
2022-08-14T03:28:37.031Z,92.85
2022-08-14T03:29:36.023Z,92.65
2022-08-14T03:30:38.891Z,92.85
2022-08-14T03:31:36.045Z,92.85
2022-08-14T03:32:36.029Z,92.76
2022-08-14T03:33:37.832Z,92.96
2022-08-14T03:34:47.930Z,93.05
2022-08-14T03:35:40.277Z,93.36
2022-08-14T03:37:51.401Z,93.30
2022-08-14T03:39:09.749Z,93.60
2022-08-14T03:39:11.618Z,93.20
2022-08-14T03:39:36.977Z,93.81
2022-08-14T03:40:35.911Z,93.40
2022-08-14T03:41:35.940Z,93.40
2022-08-14T03:42:36.861Z,93.20
2022-08-14T03:43:35.906Z,93.30
2022-08-14T03:45:28.013Z,93.20
2022-08-14T03:45:36.880Z,93.71
2022-08-14T04:01:41.558Z,95.17
2022-08-14T04:02:46.686Z,95.17
2022-08-14T04:03:41.355Z,95.07
2022-08-14T04:04:40.343Z,95.37
2022-08-14T04:05:43.040Z,95.78
2022-08-14T04:06:42.580Z,95.37
2022-08-14T04:07:41.557Z,95.27
2022-08-14T04:08:41.961Z,95.12
2022-08-14T04:09:40.330Z,94.96
2022-08-14T04:10:40.291Z,95.47
2022-08-14T04:11:40.282Z,94.96
2022-08-14T04:12:40.336Z,94.96
2022-08-14T04:13:41.182Z,95.22
2022-08-14T04:14:40.251Z,94.86
2022-08-14T04:15:52.790Z,94.96
2022-08-14T04:16:41.237Z,94.86
2022-08-14T04:17:40.247Z,94.62
2022-08-14T04:18:40.231Z,94.86
2022-08-14T04:19:40.203Z,95.22
2022-08-14T04:20:51.474Z,95.07
2022-08-14T04:22:02.029Z,94.72
2022-08-14T04:22:41.186Z,94.66
2022-08-14T04:23:40.186Z,94.36
2022-08-14T04:24:40.197Z,94.31
2022-08-14T04:25:40.207Z,94.11
2022-08-14T04:26:43.067Z,93.91
2022-08-14T04:28:01.588Z,94.11
2022-08-14T04:29:05.331Z,94.42
2022-08-14T04:29:41.135Z,94.31
2022-08-14T04:30:42.260Z,94.42
2022-08-14T04:32:58.748Z,94.21
2022-08-14T04:32:59.927Z,94.31
2022-08-14T04:33:41.097Z,94.26
2022-08-14T04:34:41.974Z,94.15
2022-08-14T04:35:56.096Z,94.42
2022-08-14T04:36:41.849Z,94.21
2022-08-14T04:37:40.068Z,94.11
2022-08-14T04:38:40.076Z,94.11
2022-08-14T04:39:46.465Z,94.21
2022-08-14T04:40:41.088Z,93.60
2022-08-14T04:41:40.063Z,93.46
2022-08-14T04:42:47.533Z,92.61
2022-08-14T04:43:41.047Z,92.41
2022-08-14T04:44:40.026Z,91.55
2022-08-14T04:45:40.021Z,91.46
2022-08-14T04:46:55.877Z,91.01
2022-08-14T04:47:46.385Z,90.50
2022-08-14T04:48:43.206Z,90.70
2022-08-14T04:49:46.742Z,90.06
2022-08-14T04:50:44.417Z,89.01
2022-08-14T04:51:55.518Z,88.26
2022-08-14T04:52:40.976Z,86.77
2022-08-14T04:53:43.284Z,84.88
2022-08-14T04:54:40.001Z,84.47
2022-08-14T04:55:39.928Z,83.09
2022-08-14T04:56:39.942Z,82.42
2022-08-14T04:57:39.915Z,82.89
2022-08-14T04:58:39.933Z,82.92
2022-08-14T04:59:39.912Z,81.88
2022-08-14T05:00:39.907Z,81.64
2022-08-14T05:01:40.570Z,81.54
2022-08-14T05:02:39.933Z,81.54
2022-08-14T05:03:39.908Z,81.34
2022-08-14T05:04:39.986Z,81.06
2022-08-14T05:05:40.866Z,79.86
2022-08-14T05:06:39.942Z,79.46
2022-08-14T05:07:53.866Z,79.28
2022-08-14T05:08:57.352Z,77.74
2022-08-14T05:09:43.906Z,76.56
2022-08-14T05:10:43.952Z,76.13
2022-08-14T05:11:40.812Z,75.23
2022-08-14T05:13:12.963Z,75.73
2022-08-14T05:14:33.084Z,76.17
2022-08-14T05:14:53.464Z,75.09
2022-08-14T05:15:40.792Z,73.72
2022-08-14T05:16:39.847Z,72.49
2022-08-14T05:17:44.182Z,71.12
2022-08-14T05:19:24.355Z,70.19
2022-08-14T05:19:44.787Z,70.29
2022-08-14T05:21:55.529Z,69.76
2022-08-14T05:22:00.404Z,69.79
2022-08-14T05:22:40.750Z,69.59
2022-08-14T05:23:39.737Z,69.26
2022-08-14T05:24:39.764Z,68.53
2022-08-14T05:25:39.726Z,68.63
2022-08-14T05:26:39.708Z,68.63
2022-08-14T05:27:39.731Z,67.90
2022-08-14T05:28:39.693Z,69.06
2022-08-14T05:29:39.716Z,69.89
2022-08-14T05:30:39.703Z,71.22
2022-08-14T05:31:40.596Z,70.65
2022-08-14T05:32:40.554Z,70.49
2022-08-14T05:33:39.655Z,69.32
2022-08-14T05:34:39.644Z,68.40
2022-08-14T05:35:39.646Z,67.67
2022-08-14T05:36:39.617Z,67.04
2022-08-14T05:37:39.616Z,66.77
2022-08-14T05:38:40.618Z,68.43
2022-08-14T05:39:39.693Z,70.53
2022-08-14T05:40:39.616Z,72.92
2022-08-14T05:41:52.719Z,72.55
2022-08-14T05:42:40.588Z,72.25
2022-08-14T05:43:41.245Z,70.83
2022-08-14T05:44:39.579Z,70.49
2022-08-14T05:45:39.549Z,70.62
2022-08-14T05:46:39.575Z,70.62
2022-08-14T05:47:39.871Z,70.59
2022-08-14T05:48:42.868Z,69.23
2022-08-14T05:49:39.611Z,68.16
2022-08-14T05:50:39.516Z,68.04
2022-08-14T05:51:39.527Z,66.28
2022-08-14T05:52:39.666Z,66.38
2022-08-14T05:53:42.156Z,64.95
2022-08-14T05:54:39.486Z,64.26
2022-08-14T05:55:42.881Z,63.40
2022-08-14T05:56:41.472Z,62.85
2022-08-14T05:57:39.470Z,61.21
2022-08-14T05:58:41.498Z,60.97
2022-08-14T05:59:40.456Z,61.33
2022-08-14T06:00:39.826Z,62.55
2022-08-14T06:01:39.510Z,62.02
2022-08-14T06:02:39.425Z,62.58
2022-08-14T06:03:40.256Z,64.56
2022-08-14T06:04:39.468Z,66.14
2022-08-14T06:05:39.416Z,67.77
2022-08-14T06:06:39.444Z,66.21
2022-08-14T06:07:39.413Z,64.50
2022-08-14T06:08:41.511Z,63.31
2022-08-14T06:09:40.574Z,64.46
2022-08-14T06:10:39.378Z,66.01
2022-08-14T06:11:39.360Z,67.74
2022-08-14T06:12:55.826Z,67.44
2022-08-14T06:13:45.359Z,67.93
2022-08-14T06:14:40.419Z,67.93
2022-08-14T06:15:39.342Z,66.84
2022-08-14T06:16:39.338Z,67.93
2022-08-14T06:17:45.984Z,67.97
2022-08-14T06:18:40.340Z,68.56
2022-08-14T06:19:39.342Z,68.37
2022-08-14T06:20:39.320Z,68.13
2022-08-14T06:21:39.468Z,68.70
2022-08-14T06:22:39.293Z,68.99
2022-08-14T06:23:39.279Z,68.90
2022-08-14T06:24:39.292Z,68.83
2022-08-14T06:25:39.260Z,68.30
2022-08-14T06:26:39.244Z,66.48
2022-08-14T06:27:39.265Z,65.12
2022-08-14T06:28:39.227Z,64.89
2022-08-14T06:29:39.246Z,64.79
2022-08-14T06:30:46.170Z,65.32
2022-08-14T06:31:40.199Z,65.22
2022-08-14T06:32:39.489Z,66.81
2022-08-14T06:35:03.056Z,66.67
2022-08-14T06:35:09.265Z,67.50
2022-08-14T06:35:40.188Z,66.55
2022-08-14T06:36:39.892Z,66.55
2022-08-14T06:37:39.177Z,66.31
2022-08-14T06:38:39.191Z,64.76
2022-08-14T06:39:39.271Z,63.34
2022-08-14T06:40:40.350Z,63.45
2022-08-14T06:41:58.559Z,64.17
2022-08-14T06:42:40.122Z,63.67
2022-08-14T06:43:39.152Z,66.55
2022-08-14T06:44:40.154Z,66.67
2022-08-14T06:45:39.117Z,67.97
2022-08-14T06:46:39.139Z,68.27
2022-08-14T06:47:39.119Z,68.37
2022-08-14T06:48:39.087Z,67.83
2022-08-14T06:49:43.271Z,66.55
2022-08-14T06:50:40.094Z,66.67
2022-08-14T06:51:44.818Z,67.40
2022-08-14T06:52:40.112Z,66.58
2022-08-14T06:53:40.089Z,66.48
2022-08-14T06:54:39.052Z,66.67
2022-08-14T06:55:40.799Z,66.74
2022-08-14T06:56:40.106Z,65.75
2022-08-14T06:57:39.051Z,65.52
2022-08-14T06:58:39.050Z,66.74
2022-08-14T06:59:39.039Z,65.75
2022-08-14T07:00:39.016Z,66.61
2022-08-14T07:01:39.053Z,66.55
2022-08-14T07:02:43.781Z,64.40
2022-08-14T07:03:39.052Z,64.27
2022-08-14T07:04:39.021Z,63.74
2022-08-14T07:05:39.022Z,63.34
2022-08-14T07:06:47.060Z,63.54
2022-08-14T07:07:40.000Z,63.54
2022-08-14T07:08:38.991Z,62.72
2022-08-14T07:09:40.508Z,63.12
2022-08-14T07:10:39.971Z,62.82
2022-08-14T07:11:38.935Z,63.21
2022-08-14T07:13:02.056Z,62.62
2022-08-14T07:13:39.926Z,62.07
2022-08-14T07:14:38.969Z,61.51
2022-08-14T07:15:39.981Z,61.41
2022-08-14T07:16:38.924Z,60.75
2022-08-14T07:17:38.885Z,60.92
2022-08-14T07:18:40.713Z,60.19
2022-08-14T07:19:38.910Z,60.92
2022-08-14T07:20:38.936Z,60.52
2022-08-14T07:21:38.896Z,60.30
2022-08-14T07:22:56.305Z,60.72
2022-08-14T07:23:40.283Z,60.36
2022-08-14T07:24:38.855Z,59.45
2022-08-14T07:25:38.870Z,59.12
2022-08-14T07:26:38.872Z,58.86
2022-08-14T07:27:38.854Z,58.73
2022-08-14T07:28:43.250Z,59.67
2022-08-14T07:29:38.889Z,61.11
2022-08-14T07:30:42.095Z,60.19
2022-08-14T07:31:39.808Z,59.34
2022-08-14T07:32:38.832Z,58.73
2022-08-14T07:33:41.927Z,58.43
2022-08-14T07:34:41.207Z,56.90
2022-08-14T07:35:57.683Z,57.65
2022-08-14T07:36:39.789Z,57.09
2022-08-14T07:37:39.805Z,57.26
2022-08-14T07:38:38.763Z,57.73
2022-08-14T07:39:38.929Z,56.67
2022-08-14T07:40:38.748Z,57.81
2022-08-14T07:41:38.876Z,57.46
2022-08-14T07:42:41.135Z,56.35
2022-08-14T07:43:38.782Z,56.71
2022-08-14T07:44:45.803Z,55.90
2022-08-14T07:45:39.708Z,56.71
2022-08-14T07:46:38.714Z,55.90
2022-08-14T07:47:38.708Z,56.10
2022-08-14T07:48:38.685Z,55.21
2022-08-14T07:49:38.701Z,56.64
2022-08-14T07:50:38.725Z,57.78
2022-08-14T07:51:38.664Z,57.04
2022-08-14T07:52:38.648Z,55.68
2022-08-14T07:53:40.521Z,54.64
2022-08-14T07:54:38.713Z,53.83
2022-08-14T07:55:38.617Z,54.41
2022-08-14T07:56:47.029Z,55.06
2022-08-14T07:57:39.610Z,55.03
2022-08-14T07:58:38.958Z,53.19
2022-08-14T07:59:42.557Z,51.93
2022-08-14T08:00:38.685Z,51.59
2022-08-14T08:01:39.553Z,52.25
2022-08-14T08:02:40.703Z,51.69
2022-08-14T08:03:38.621Z,52.99
2022-08-14T08:04:38.580Z,53.33
2022-08-14T08:05:38.557Z,54.99
2022-08-14T08:06:38.561Z,57.26
2022-08-14T08:07:39.123Z,59.32
2022-08-14T08:08:38.573Z,57.82
2022-08-14T08:09:38.541Z,55.58
2022-08-14T08:11:02.525Z,54.32
2022-08-14T08:11:39.522Z,53.48
2022-08-14T08:12:38.556Z,54.35
2022-08-14T08:14:17.616Z,54.57
2022-08-14T08:14:56.541Z,54.99
2022-08-14T08:15:38.541Z,57.65
2022-08-14T08:16:38.474Z,57.23
2022-08-14T08:17:53.452Z,55.85
2022-08-14T08:18:39.531Z,54.12
2022-08-14T08:19:39.847Z,52.06
2022-08-14T08:20:38.498Z,52.06
2022-08-14T08:21:38.579Z,52.86
2022-08-14T08:22:39.448Z,53.19
2022-08-14T08:23:50.979Z,52.89
2022-08-14T08:24:39.416Z,55.18
2022-08-14T08:25:39.968Z,56.71
2022-08-14T08:26:38.715Z,56.54
2022-08-14T08:27:39.033Z,57.33
2022-08-14T08:28:43.689Z,55.60
2022-08-14T08:29:38.385Z,55.18
2022-08-14T08:30:49.355Z,55.11
2022-08-14T08:31:39.394Z,57.71
2022-08-14T08:32:38.470Z,59.52
2022-08-14T08:33:38.386Z,57.63
2022-08-14T08:34:38.368Z,55.87
2022-08-14T08:35:46.803Z,55.75
2022-08-14T08:36:39.470Z,54.12
2022-08-14T08:37:40.392Z,53.50
2022-08-14T08:39:18.538Z,52.80
2022-08-14T08:40:01.973Z,52.18
2022-08-14T08:40:42.424Z,53.33
2022-08-14T08:41:38.327Z,55.31
2022-08-14T08:42:44.585Z,55.95
2022-08-14T08:43:39.348Z,54.74
2022-08-14T08:44:39.281Z,54.64
2022-08-14T08:45:38.269Z,55.14
2022-08-14T08:46:38.282Z,54.33
2022-08-14T08:47:38.280Z,53.09
2022-08-14T08:48:44.260Z,53.39
2022-08-14T08:49:42.794Z,55.04
2022-08-14T08:51:25.049Z,55.39
2022-08-14T08:52:30.861Z,57.61
2022-08-14T08:53:25.856Z,56.48
2022-08-14T08:54:26.634Z,56.70
2022-08-14T08:55:25.842Z,56.99
2022-08-14T08:56:30.670Z,55.16
2022-08-14T08:57:25.840Z,54.33
2022-08-14T08:58:25.480Z,54.72
2022-08-14T08:59:27.102Z,55.63
2022-08-14T09:00:26.440Z,54.82
2022-08-14T09:01:24.923Z,53.16
2022-08-14T09:02:26.082Z,53.23
2022-08-14T09:03:24.804Z,54.37
2022-08-14T09:04:24.802Z,54.82
2022-08-14T09:05:24.811Z,54.72
2022-08-14T09:07:00.357Z,53.68
2022-08-14T09:07:25.765Z,52.82
2022-08-14T09:08:31.285Z,51.22
2022-08-14T09:09:25.794Z,51.57
2022-08-14T09:10:27.168Z,50.71
2022-08-14T09:11:24.811Z,50.90
2022-08-14T09:12:24.739Z,50.73
2022-08-14T09:13:24.726Z,51.29
2022-08-14T09:14:24.768Z,51.76
2022-08-14T09:15:24.710Z,53.19
2022-08-14T09:16:24.989Z,53.98
2022-08-14T09:17:25.775Z,53.68
2022-08-14T09:18:24.747Z,55.46
2022-08-14T09:19:24.657Z,55.29
2022-08-14T09:20:29.500Z,56.70
2022-08-14T09:21:31.174Z,57.42
2022-08-14T09:22:36.100Z,56.60
2022-08-14T09:23:27.480Z,56.30
2022-08-14T09:24:28.183Z,56.01
2022-08-14T09:26:00.422Z,55.46
2022-08-14T09:26:28.620Z,54.91
2022-08-14T09:27:24.640Z,53.04
2022-08-14T09:28:24.624Z,52.62
2022-08-14T09:29:24.622Z,53.27
2022-08-14T09:30:32.269Z,53.23
2022-08-14T09:31:25.594Z,53.75
2022-08-14T09:32:58.034Z,53.56
2022-08-14T09:33:25.587Z,52.92
2022-08-14T09:34:28.007Z,52.13
2022-08-14T09:35:24.591Z,52.75
2022-08-14T09:36:24.566Z,54.13
2022-08-14T09:37:24.615Z,54.27
2022-08-14T09:38:26.169Z,52.42
2022-08-14T09:39:24.608Z,52.11
2022-08-14T09:40:24.658Z,51.42
2022-08-14T09:41:24.536Z,52.23
2022-08-14T09:42:33.161Z,51.81
2022-08-14T09:43:26.403Z,51.49
2022-08-14T09:44:24.520Z,52.01
2022-08-14T09:45:24.516Z,52.03
2022-08-14T09:46:25.839Z,52.55
2022-08-14T09:47:24.476Z,53.39
2022-08-14T09:48:27.877Z,53.29
2022-08-14T09:49:25.490Z,53.39
2022-08-14T09:50:26.127Z,53.29
2022-08-14T09:51:25.420Z,51.22
2022-08-14T09:52:34.292Z,51.20
2022-08-14T09:54:12.939Z,50.73
2022-08-14T09:54:25.468Z,52.31
2022-08-14T09:55:24.476Z,53.66
2022-08-14T09:56:31.255Z,54.25
2022-08-14T09:57:27.745Z,53.09
2022-08-14T09:58:24.749Z,50.93
2022-08-14T09:59:24.442Z,52.80
2022-08-14T10:00:28.341Z,52.77
2022-08-14T10:01:25.404Z,52.35
2022-08-14T10:02:24.463Z,50.83
2022-08-14T10:03:24.361Z,51.67
2022-08-14T10:04:35.055Z,51.84
2022-08-14T10:05:25.366Z,50.93
2022-08-14T10:06:24.479Z,50.88
2022-08-14T10:07:24.349Z,50.83
2022-08-14T10:08:26.549Z,51.47
2022-08-14T10:09:24.850Z,51.47
2022-08-14T10:10:24.380Z,51.22
2022-08-14T10:11:24.386Z,53.19
2022-08-14T10:12:29.046Z,52.70
2022-08-14T10:13:25.312Z,51.96
2022-08-14T10:14:29.297Z,52.45
2022-08-14T10:15:25.421Z,51.15
2022-08-14T10:16:27.358Z,49.26
2022-08-14T10:17:25.327Z,49.75
2022-08-14T10:18:24.303Z,49.19
2022-08-14T10:19:24.290Z,49.24
2022-08-14T10:20:39.980Z,51.07
2022-08-14T10:21:25.270Z,52.72
2022-08-14T10:23:15.599Z,51.59
2022-08-14T10:23:26.246Z,49.24
2022-08-14T10:24:24.245Z,49.41
2022-08-14T10:25:25.272Z,49.02
2022-08-14T10:26:28.209Z,48.99
2022-08-14T10:27:24.304Z,48.26
2022-08-14T10:29:03.929Z,48.52
2022-08-14T10:29:25.237Z,47.52
2022-08-14T10:30:25.583Z,47.47
2022-08-14T10:31:25.398Z,48.80
2022-08-14T10:32:36.166Z,49.26
2022-08-14T10:33:25.211Z,49.82
2022-08-14T10:34:29.258Z,51.22
2022-08-14T10:35:31.835Z,50.61
2022-08-14T10:36:37.085Z,50.71
2022-08-14T10:37:27.840Z,51.00
2022-08-14T10:38:24.155Z,49.80
2022-08-14T10:39:25.152Z,49.75
2022-08-14T10:40:44.121Z,49.07
2022-08-14T10:41:31.699Z,49.04
2022-08-14T10:42:25.113Z,49.75
2022-08-14T10:43:24.211Z,49.31
2022-08-14T10:44:24.090Z,49.11
2022-08-14T10:45:24.256Z,49.55
2022-08-14T10:47:37.181Z,48.89
2022-08-14T10:47:39.846Z,49.82
2022-08-14T10:48:37.161Z,51.07
2022-08-14T10:49:25.075Z,51.47
2022-08-14T10:50:24.106Z,51.32
2022-08-14T10:51:24.162Z,49.80
2022-08-14T10:52:24.064Z,50.04
2022-08-14T10:53:24.064Z,50.04
2022-08-14T10:54:39.896Z,49.80
2022-08-14T10:55:25.020Z,48.74
2022-08-14T10:56:33.836Z,47.62
2022-08-14T10:57:25.090Z,47.64
2022-08-14T10:58:24.041Z,47.77
2022-08-14T10:59:30.863Z,49.53
2022-08-14T11:00:30.303Z,50.14
2022-08-14T11:01:24.997Z,50.85
2022-08-14T11:02:44.853Z,49.95
2022-08-14T11:03:26.694Z,51.37
2022-08-14T11:04:26.004Z,51.28
2022-08-14T11:05:24.950Z,49.92
2022-08-14T11:06:24.777Z,49.48
2022-08-14T11:07:23.945Z,49.26
2022-08-14T11:08:23.976Z,49.70
2022-08-14T11:09:26.652Z,49.82
2022-08-14T11:10:25.088Z,49.23
2022-08-14T11:11:23.941Z,51.47
2022-08-14T11:12:34.315Z,51.50
2022-08-14T11:13:24.943Z,51.92
2022-08-14T11:14:26.410Z,51.40
2022-08-14T11:15:23.904Z,51.79
2022-08-14T11:16:23.931Z,51.28
2022-08-14T11:17:23.914Z,51.42
2022-08-14T11:18:32.311Z,49.90
2022-08-14T11:19:25.069Z,49.08
2022-08-14T11:20:24.115Z,49.21
2022-08-14T11:21:23.879Z,49.60
2022-08-14T11:22:52.430Z,49.21
2022-08-14T11:23:24.843Z,49.21
2022-08-14T11:24:50.764Z,49.46
2022-08-14T11:25:24.824Z,50.14
2022-08-14T11:26:25.844Z,49.87
2022-08-14T11:27:33.158Z,48.16
2022-08-14T11:28:47.542Z,47.57
2022-08-14T11:29:26.923Z,48.57
2022-08-14T11:30:50.742Z,48.69
2022-08-14T11:31:24.865Z,49.41
2022-08-14T11:32:23.854Z,49.60
2022-08-14T11:33:23.752Z,50.39
2022-08-14T11:34:32.131Z,50.49
2022-08-14T11:35:24.749Z,49.87
2022-08-14T11:36:35.130Z,49.21
2022-08-14T11:37:38.107Z,49.24
2022-08-14T11:38:25.765Z,48.67
2022-08-14T11:39:34.427Z,49.21
2022-08-14T11:40:29.389Z,49.70
2022-08-14T11:41:24.682Z,49.29
2022-08-14T11:42:57.144Z,47.45
2022-08-14T11:43:29.624Z,45.72
2022-08-14T11:44:45.656Z,45.81
2022-08-14T11:45:24.681Z,46.84
2022-08-14T11:46:29.759Z,46.86
2022-08-14T11:47:25.538Z,46.98
2022-08-14T11:49:04.453Z,46.76
2022-08-14T11:49:24.677Z,47.71
2022-08-14T11:50:25.126Z,47.76
2022-08-14T11:51:24.662Z,47.76
2022-08-14T11:52:23.663Z,47.52
2022-08-14T11:53:23.640Z,46.08
2022-08-14T11:54:33.902Z,46.08
2022-08-14T11:55:25.665Z,45.76
2022-08-14T11:56:25.595Z,45.76
2022-08-14T11:57:23.592Z,45.86
2022-08-14T11:58:23.806Z,46.17
2022-08-14T11:59:26.196Z,46.78
2022-08-14T12:00:32.123Z,46.51
2022-08-14T12:01:24.609Z,47.13
2022-08-14T12:03:00.600Z,47.86
2022-08-14T12:03:37.894Z,48.03
2022-08-14T12:04:32.103Z,47.64
2022-08-14T12:05:24.603Z,47.05
2022-08-14T12:06:29.207Z,46.41
2022-08-14T12:07:24.543Z,46.61
2022-08-14T12:08:24.255Z,47.22
2022-08-14T12:09:23.576Z,46.83
2022-08-14T12:10:27.293Z,47.22
2022-08-14T12:11:24.564Z,45.83
2022-08-14T12:12:35.006Z,45.70
2022-08-14T12:13:27.265Z,44.76
2022-08-14T12:14:30.873Z,43.84
2022-08-14T12:15:24.520Z,43.42
2022-08-14T12:16:23.519Z,44.05
2022-08-14T12:17:24.204Z,43.84
2022-08-14T12:18:23.458Z,43.03
2022-08-14T12:19:23.464Z,44.01
2022-08-14T12:20:29.967Z,43.59
2022-08-14T12:21:25.588Z,42.99
2022-08-14T12:22:29.681Z,41.93
2022-08-14T12:23:24.801Z,41.74
2022-08-14T12:24:35.981Z,43.23
2022-08-14T12:25:24.909Z,42.03
2022-08-14T12:26:39.178Z,42.21
2022-08-14T12:27:25.313Z,41.93
2022-08-14T12:28:26.948Z,42.76
2022-08-14T12:29:24.377Z,44.12
2022-08-14T12:30:23.376Z,45.34
2022-08-14T12:31:23.371Z,45.43
2022-08-14T12:32:23.397Z,45.53
2022-08-14T12:33:24.081Z,45.45
2022-08-14T12:34:24.237Z,46.14
2022-08-14T12:35:23.328Z,45.73
2022-08-14T12:36:23.362Z,45.83
2022-08-14T12:37:23.324Z,45.43
2022-08-14T12:38:23.440Z,45.63
2022-08-14T12:39:23.946Z,45.24
2022-08-14T12:40:23.394Z,45.48
2022-08-14T12:41:24.207Z,45.87
2022-08-14T12:42:27.441Z,45.87
2022-08-14T12:43:24.382Z,46.38
2022-08-14T12:44:23.291Z,46.28
2022-08-14T12:45:23.288Z,46.50
2022-08-14T12:46:27.429Z,46.78
2022-08-14T12:47:25.024Z,46.78
2022-08-14T12:48:32.141Z,46.48
2022-08-14T12:49:25.967Z,46.66
2022-08-14T12:50:23.244Z,46.46
2022-08-14T12:51:25.251Z,46.17
2022-08-14T12:52:30.792Z,46.68
2022-08-14T12:53:24.257Z,46.38
2022-08-14T12:54:28.688Z,46.85
2022-08-14T12:56:00.521Z,47.36
2022-08-14T12:56:33.254Z,46.78
2022-08-14T12:57:24.173Z,46.36
2022-08-14T12:58:29.547Z,45.95
2022-08-14T12:59:24.213Z,45.75
2022-08-14T13:00:24.210Z,46.66
2022-08-14T13:01:24.210Z,46.36
2022-08-14T13:02:26.124Z,46.06
2022-08-14T13:03:24.052Z,46.78
2022-08-14T13:04:23.231Z,46.09
2022-08-14T13:05:23.560Z,46.48
2022-08-14T13:06:23.119Z,46.17
2022-08-14T13:07:23.968Z,45.99
2022-08-14T13:08:33.530Z,46.68
2022-08-14T13:09:24.089Z,46.38
2022-08-14T13:10:52.018Z,46.48
2022-08-14T13:11:24.293Z,46.19
2022-08-14T13:12:34.801Z,46.97
2022-08-14T13:13:24.083Z,46.26
2022-08-14T13:14:29.624Z,46.44
2022-08-14T13:15:25.090Z,46.31
2022-08-14T13:16:38.238Z,46.24
2022-08-14T13:17:24.151Z,46.36
2022-08-14T13:18:23.020Z,47.27
2022-08-14T13:19:24.237Z,46.46
2022-08-14T13:20:24.639Z,46.17
2022-08-14T13:21:23.097Z,46.41
2022-08-14T13:22:31.987Z,45.41
2022-08-14T13:23:30.501Z,44.92
2022-08-14T13:24:24.053Z,44.48
2022-08-14T13:25:23.009Z,43.68
2022-08-14T13:26:22.972Z,43.80